createdAt,value
2022-10-08T00:00:01.101Z,16.4
2022-10-08T00:01:03.133Z,16.3
2022-10-08T00:02:01.411Z,16.1
2022-10-08T00:03:01.149Z,16.1
2022-10-08T00:04:01.201Z,16.2
2022-10-08T00:05:01.854Z,16.2
2022-10-08T00:06:05.736Z,16.7
2022-10-08T00:07:01.391Z,16.9
2022-10-08T00:08:01.466Z,16.8
2022-10-08T00:09:02.086Z,16.9
2022-10-08T00:10:01.489Z,16.9
2022-10-08T00:11:07.646Z,16.8
2022-10-08T00:12:02.023Z,16.8
2022-10-08T00:13:01.774Z,16.6
2022-10-08T00:14:02.128Z,16.8
2022-10-08T00:15:01.798Z,16.7
2022-10-08T00:16:11.355Z,16.6
2022-10-08T00:17:01.546Z,16.8
2022-10-08T00:18:01.304Z,16.9
2022-10-08T00:19:00.928Z,16.9
2022-10-08T00:20:01.223Z,17.1
2022-10-08T00:21:13.431Z,17.3
2022-10-08T00:22:01.172Z,17.3
2022-10-08T00:23:01.176Z,17.5
2022-10-08T00:24:02.420Z,17.4
2022-10-08T00:25:01.062Z,17.5
2022-10-08T00:26:15.088Z,17.6
2022-10-08T00:27:01.735Z,17.4
2022-10-08T00:28:01.108Z,17.4
2022-10-08T00:29:00.910Z,17.3
2022-10-08T00:30:00.704Z,17.3
2022-10-08T00:31:00.535Z,17.3
2022-10-08T00:32:00.443Z,17
2022-10-08T00:33:00.205Z,17.2
2022-10-08T00:33:59.757Z,17.1
2022-10-08T00:35:01.351Z,17
2022-10-08T00:36:02.083Z,17
2022-10-08T00:37:01.144Z,17.1
2022-10-08T00:38:01.196Z,17.2
2022-10-08T00:39:01.449Z,17.4
2022-10-08T00:40:01.061Z,17.5
2022-10-08T00:41:01.061Z,18.4
2022-10-08T00:42:01.067Z,18.4
2022-10-08T00:43:01.183Z,18.5
2022-10-08T00:44:01.077Z,18.2
2022-10-08T00:45:01.133Z,18.3
2022-10-08T00:46:01.182Z,18.2
2022-10-08T00:47:01.472Z,18
2022-10-08T00:48:01.116Z,18
2022-10-08T00:49:01.827Z,18.6
2022-10-08T00:50:01.711Z,18.8
2022-10-08T00:51:01.707Z,18.9
2022-10-08T00:52:02.562Z,19
2022-10-08T00:53:01.823Z,19.1
2022-10-08T00:54:01.760Z,19.3
2022-10-08T00:55:01.320Z,19.2
2022-10-08T00:56:01.273Z,19.1
2022-10-08T00:57:01.060Z,19.1
2022-10-08T00:58:01.081Z,19
2022-10-08T00:59:01.882Z,19
2022-10-08T01:00:01.343Z,19
2022-10-08T01:01:01.170Z,19
2022-10-08T01:02:01.189Z,19
2022-10-08T01:03:01.175Z,19
2022-10-08T01:04:01.374Z,19
2022-10-08T01:05:01.509Z,19
2022-10-08T01:06:02.072Z,18.9
2022-10-08T01:07:01.123Z,19
2022-10-08T01:08:01.257Z,19
2022-10-08T01:09:01.140Z,19
2022-10-08T01:10:01.139Z,19
2022-10-08T01:11:01.154Z,19
2022-10-08T01:12:01.436Z,19.1
2022-10-08T01:13:01.073Z,19.4
2022-10-08T01:14:04.356Z,19.6
2022-10-08T01:15:01.096Z,19.8
2022-10-08T01:16:01.155Z,19.8
2022-10-08T01:17:01.112Z,20.4
2022-10-08T01:18:01.490Z,20
2022-10-08T01:19:02.115Z,19.9
2022-10-08T01:20:01.138Z,20
2022-10-08T01:21:01.049Z,20.4
2022-10-08T01:22:01.122Z,20.3
2022-10-08T01:23:01.126Z,20.3
2022-10-08T01:24:01.082Z,20.2
2022-10-08T01:25:01.714Z,20.2
2022-10-08T01:26:01.149Z,20
2022-10-08T01:27:01.161Z,20
2022-10-08T01:28:01.146Z,19.8
2022-10-08T01:29:02.251Z,19.7
2022-10-08T01:30:01.901Z,19.7
2022-10-08T01:31:01.921Z,19.6
2022-10-08T01:32:01.206Z,19.6
2022-10-08T01:33:01.057Z,19.6
2022-10-08T01:34:01.239Z,19.7
2022-10-08T01:35:00.790Z,20
2022-10-08T01:36:00.503Z,20.2
2022-10-08T01:37:00.198Z,20.1
2022-10-08T01:37:59.895Z,20.2
2022-10-08T01:38:59.594Z,20.1
2022-10-08T01:40:02.370Z,20
2022-10-08T01:41:03.113Z,20
2022-10-08T01:42:02.175Z,20
2022-10-08T01:43:01.056Z,19.9
2022-10-08T01:44:01.061Z,19.8
2022-10-08T01:45:01.325Z,19.7
2022-10-08T01:46:01.410Z,19.6
2022-10-08T01:47:01.876Z,19.5
2022-10-08T01:48:01.080Z,19.7
2022-10-08T01:49:01.098Z,19.5
2022-10-08T01:50:01.103Z,19.5
2022-10-08T01:51:01.109Z,19.3
2022-10-08T01:52:05.143Z,19.3
2022-10-08T01:53:01.103Z,19.1
2022-10-08T01:54:01.815Z,19.2
2022-10-08T01:55:01.133Z,19.3
2022-10-08T01:56:01.147Z,19.2
2022-10-08T01:57:09.029Z,19.1
2022-10-08T01:58:01.339Z,19.2
2022-10-08T01:59:01.050Z,19.7
2022-10-08T02:00:01.050Z,19.7
2022-10-08T02:01:01.120Z,19.8
2022-10-08T02:02:12.098Z,20
2022-10-08T02:03:02.097Z,20
2022-10-08T02:04:01.793Z,20.5
2022-10-08T02:05:01.050Z,20.5
2022-10-08T02:06:01.107Z,20.4
2022-10-08T02:07:14.841Z,21.5
2022-10-08T02:08:01.070Z,21.4
2022-10-08T02:09:00.673Z,21.4
2022-10-08T02:10:00.318Z,21.5
2022-10-08T02:11:00.133Z,21.4
2022-10-08T02:11:59.751Z,21.6
2022-10-08T02:13:01.695Z,21.6
2022-10-08T02:14:01.973Z,21.4
2022-10-08T02:15:02.094Z,21.7
2022-10-08T02:16:01.195Z,21.6
2022-10-08T02:17:01.062Z,21.6
2022-10-08T02:18:01.085Z,22
2022-10-08T02:19:01.082Z,22
2022-10-08T02:20:01.084Z,22.1
2022-10-08T02:21:01.091Z,22.1
2022-10-08T02:22:01.092Z,22.3
2022-10-08T02:23:01.217Z,22.2
2022-10-08T02:24:01.138Z,22
2022-10-08T02:25:00.906Z,22.2
2022-10-08T02:26:01.146Z,21.9
2022-10-08T02:27:01.140Z,21.6
2022-10-08T02:28:01.195Z,21.5
2022-10-08T02:29:01.770Z,21
2022-10-08T02:30:01.530Z,20.8
2022-10-08T02:31:02.129Z,20.9
2022-10-08T02:32:01.084Z,20.9
2022-10-08T02:33:01.094Z,20.9
2022-10-08T02:34:01.072Z,21
2022-10-08T02:35:01.318Z,21
2022-10-08T02:36:01.473Z,20.7
2022-10-08T02:37:01.096Z,20.8
2022-10-08T02:38:01.110Z,20.8
2022-10-08T02:39:01.039Z,20.7
2022-10-08T02:40:01.128Z,20.8
2022-10-08T02:41:01.065Z,20.8
2022-10-08T02:42:01.123Z,20.8
2022-10-08T02:43:01.455Z,20.5
2022-10-08T02:44:01.044Z,20.5
2022-10-08T02:45:01.141Z,20.3
2022-10-08T02:46:01.262Z,20
2022-10-08T02:47:01.960Z,19.8
2022-10-08T02:48:02.616Z,19.9
2022-10-08T02:49:01.074Z,19.8
2022-10-08T02:50:01.546Z,19.9
2022-10-08T02:51:01.476Z,20
2022-10-08T02:52:01.463Z,20
2022-10-08T02:53:01.109Z,20
2022-10-08T02:54:01.112Z,20
2022-10-08T02:55:01.127Z,20
2022-10-08T02:56:01.107Z,20.1
2022-10-08T02:57:02.233Z,20
2022-10-08T02:58:01.694Z,20.6
2022-10-08T02:59:01.311Z,20.8
2022-10-08T03:00:01.032Z,20.9
2022-10-08T03:01:01.197Z,21.3
2022-10-08T03:02:01.214Z,21.2
2022-10-08T03:03:01.151Z,21.3
2022-10-08T03:04:01.821Z,21.2
2022-10-08T03:05:01.241Z,21.3
2022-10-08T03:06:01.811Z,21.3
2022-10-08T03:07:01.452Z,21.5
2022-10-08T03:08:01.077Z,21.2
2022-10-08T03:09:01.053Z,21.1
2022-10-08T03:10:01.105Z,20.9
2022-10-08T03:11:01.110Z,21
2022-10-08T03:12:01.103Z,21
2022-10-08T03:13:01.049Z,21.1
2022-10-08T03:14:01.132Z,21
2022-10-08T03:15:01.539Z,21
2022-10-08T03:16:01.251Z,21.1
2022-10-08T03:17:01.217Z,21.1
2022-10-08T03:18:01.139Z,21
2022-10-08T03:19:01.872Z,21
2022-10-08T03:20:01.167Z,20.7
2022-10-08T03:21:01.657Z,20.5
2022-10-08T03:22:01.170Z,20.7
2022-10-08T03:23:01.076Z,20.9
2022-10-08T03:24:01.799Z,20.8
2022-10-08T03:25:01.081Z,21.1
2022-10-08T03:26:01.101Z,21
2022-10-08T03:27:01.134Z,21.4
2022-10-08T03:28:01.509Z,21.2
2022-10-08T03:29:01.473Z,21.1
2022-10-08T03:30:01.443Z,21.1
2022-10-08T03:31:02.464Z,20.8
2022-10-08T03:32:01.150Z,20.5
2022-10-08T03:33:01.145Z,20.4
2022-10-08T03:34:04.513Z,20.6
2022-10-08T03:35:00.838Z,20.5
2022-10-08T03:36:01.063Z,20.6
2022-10-08T03:37:01.437Z,20.7
2022-10-08T03:38:02.706Z,20.6
2022-10-08T03:39:04.218Z,20.6
2022-10-08T03:40:01.795Z,20.5
2022-10-08T03:41:01.096Z,20.4
2022-10-08T03:42:01.100Z,20.3
2022-10-08T03:43:06.484Z,20.3
2022-10-08T03:44:04.180Z,20.4
2022-10-08T03:45:03.845Z,20.4
2022-10-08T03:46:01.223Z,20
2022-10-08T03:47:01.397Z,20
2022-10-08T03:48:09.584Z,19.7
2022-10-08T03:49:02.325Z,19.5
2022-10-08T03:50:01.336Z,20
2022-10-08T03:51:02.025Z,20.2
2022-10-08T03:52:00.640Z,21.1
2022-10-08T03:53:12.178Z,21.4
2022-10-08T03:54:01.376Z,21.5
2022-10-08T03:55:01.092Z,21.9
2022-10-08T03:56:01.091Z,22.2
2022-10-08T03:57:01.085Z,22.4
2022-10-08T03:58:15.311Z,22.5
2022-10-08T03:59:01.044Z,22.6
2022-10-08T04:00:01.157Z,22.6
2022-10-08T04:01:01.187Z,22.6
2022-10-08T04:02:01.135Z,22.5
2022-10-08T04:03:01.229Z,22.5
2022-10-08T04:04:02.051Z,22.4
2022-10-08T04:05:02.591Z,22
2022-10-08T04:06:01.148Z,21.7
2022-10-08T04:07:01.155Z,21.6
2022-10-08T04:08:01.052Z,21.8
2022-10-08T04:09:01.478Z,21.8
2022-10-08T04:10:01.483Z,22.2
2022-10-08T04:11:01.073Z,22.3
2022-10-08T04:12:01.082Z,22.5
2022-10-08T04:13:01.131Z,22.9
2022-10-08T04:14:01.794Z,23.1
2022-10-08T04:15:01.135Z,23
2022-10-08T04:16:01.189Z,23.2
2022-10-08T04:17:01.109Z,23
2022-10-08T04:18:01.119Z,23.2
2022-10-08T04:19:02.614Z,23.3
2022-10-08T04:20:01.176Z,23.3
2022-10-08T04:21:01.134Z,23.4
2022-10-08T04:22:01.144Z,23.1
2022-10-08T04:23:01.148Z,23.3
2022-10-08T04:24:01.047Z,23.1
2022-10-08T04:25:01.058Z,23
2022-10-08T04:26:01.080Z,23.1
2022-10-08T04:27:01.165Z,23.1
2022-10-08T04:28:01.193Z,23.1
2022-10-08T04:29:01.280Z,23
2022-10-08T04:30:02.072Z,23.1
2022-10-08T04:31:01.179Z,23.1
2022-10-08T04:32:01.106Z,23.1
2022-10-08T04:33:01.109Z,23.3
2022-10-08T04:34:01.128Z,23.4
2022-10-08T04:35:01.279Z,23.4
2022-10-08T04:36:01.178Z,23.7
2022-10-08T04:37:01.040Z,23.6
2022-10-08T04:38:01.044Z,24.4
2022-10-08T04:39:01.463Z,24.8
2022-10-08T04:40:01.054Z,25.9
2022-10-08T04:41:01.778Z,25.7
2022-10-08T04:42:02.202Z,25.5
2022-10-08T04:43:01.468Z,25.3
2022-10-08T04:44:01.867Z,25.1
2022-10-08T04:45:01.346Z,25.4
2022-10-08T04:46:01.557Z,25.6
2022-10-08T04:47:02.421Z,26.5
2022-10-08T04:48:01.734Z,26.9
2022-10-08T04:49:02.206Z,27.5
2022-10-08T04:50:01.913Z,28.5
2022-10-08T04:51:01.187Z,29.4
2022-10-08T04:52:01.131Z,30.4
2022-10-08T04:53:01.137Z,31.4
2022-10-08T04:54:01.286Z,34.2
2022-10-08T04:55:01.437Z,35.7
2022-10-08T04:56:01.974Z,37.6
2022-10-08T04:57:01.870Z,37.9
2022-10-08T04:58:01.187Z,38.6
2022-10-08T04:59:01.885Z,39.4
2022-10-08T05:00:19.129Z,40
2022-10-08T05:01:01.397Z,40.2
2022-10-08T05:02:01.183Z,40.6
2022-10-08T05:03:01.192Z,40.9
2022-10-08T05:04:04.395Z,40.7
2022-10-08T05:05:00.862Z,40.8
2022-10-08T05:06:01.134Z,40.7
2022-10-08T05:07:01.123Z,40.9
2022-10-08T05:08:01.310Z,42.8
2022-10-08T05:09:01.142Z,43.7
2022-10-08T05:10:01.143Z,45.8
2022-10-08T05:11:01.070Z,51.4
2022-10-08T05:12:01.077Z,51.7
2022-10-08T05:13:01.073Z,57.4
2022-10-08T05:14:01.451Z,64.6
2022-10-08T05:15:01.051Z,64.5
2022-10-08T05:16:01.092Z,64.2
2022-10-08T05:17:01.131Z,65.4
2022-10-08T05:18:01.092Z,66.9
2022-10-08T05:19:04.497Z,75.3
2022-10-08T05:20:01.111Z,78.4
2022-10-08T05:21:01.150Z,78.4
2022-10-08T05:22:00.903Z,78.5
2022-10-08T05:23:01.508Z,80.2
2022-10-08T05:24:02.694Z,80.6
2022-10-08T05:25:01.334Z,84.7
2022-10-08T05:26:01.853Z,86.9
2022-10-08T05:27:01.906Z,87.5
2022-10-08T05:28:02.038Z,88.9
2022-10-08T05:29:04.764Z,91
2022-10-08T05:30:01.877Z,92.2
2022-10-08T05:31:01.574Z,91.8
2022-10-08T05:32:01.085Z,91.7
2022-10-08T05:33:01.106Z,92.5
2022-10-08T05:34:08.437Z,92.8
2022-10-08T05:35:01.043Z,93.9
2022-10-08T05:36:01.257Z,93.8
2022-10-08T05:37:01.123Z,93.9
2022-10-08T05:38:01.256Z,95.2
2022-10-08T05:39:10.562Z,97
2022-10-08T05:40:01.522Z,96.4
2022-10-08T05:41:01.162Z,96.4
2022-10-08T05:42:00.735Z,96.3
2022-10-08T05:43:00.324Z,96.5
2022-10-08T05:44:13.375Z,96.5
2022-10-08T05:45:06.518Z,96.9
2022-10-08T05:46:01.133Z,97.2
2022-10-08T05:47:01.079Z,96.7
2022-10-08T05:48:01.139Z,96.7
2022-10-08T05:49:16.384Z,96.7
2022-10-08T05:50:01.545Z,96.7
2022-10-08T05:51:02.515Z,97
2022-10-08T05:52:01.336Z,96.6
2022-10-08T05:53:01.203Z,97
2022-10-08T05:54:01.840Z,96.8
2022-10-08T05:55:01.044Z,96.9
2022-10-08T05:56:01.148Z,96.8
2022-10-08T05:57:01.151Z,97.5
2022-10-08T05:58:01.162Z,97.3
2022-10-08T05:59:01.177Z,97.2
2022-10-08T06:00:01.165Z,97.4
2022-10-08T06:01:01.981Z,97.3
2022-10-08T06:02:01.069Z,97.2
2022-10-08T06:03:01.103Z,97.5
2022-10-08T06:04:07.031Z,97.5
2022-10-08T06:05:00.950Z,97.2
2022-10-08T06:06:01.100Z,97
2022-10-08T06:07:01.246Z,96.8
2022-10-08T06:08:01.423Z,97.2
2022-10-08T06:09:01.453Z,97.1
2022-10-08T06:10:00.517Z,97.2
2022-10-08T06:11:00.220Z,97.1
2022-10-08T06:12:00.739Z,96.9
2022-10-08T06:13:00.423Z,96.8
2022-10-08T06:14:00.139Z,96.9
2022-10-08T06:15:03.004Z,97.3
2022-10-08T06:16:01.191Z,97.3
2022-10-08T06:17:01.462Z,97.3
2022-10-08T06:18:01.195Z,97.4
2022-10-08T06:19:01.101Z,97.3
2022-10-08T06:20:01.121Z,97.1
2022-10-08T06:21:01.604Z,96.8
2022-10-08T06:22:01.142Z,96.6
2022-10-08T06:23:01.073Z,96.3
2022-10-08T06:24:04.260Z,96.3
2022-10-08T06:25:01.146Z,96.4
2022-10-08T06:26:01.517Z,96.3
2022-10-08T06:27:01.249Z,96.1
2022-10-08T06:28:01.215Z,95.8
2022-10-08T06:29:01.144Z,96
2022-10-08T06:30:01.035Z,96.1
2022-10-08T06:31:01.241Z,95.9
2022-10-08T06:32:04.214Z,96
2022-10-08T06:33:01.325Z,96.2
2022-10-08T06:34:02.190Z,96.1
2022-10-08T06:35:02.689Z,96.4
2022-10-08T06:36:02.943Z,96.4
2022-10-08T06:37:01.252Z,96.5
2022-10-08T06:38:01.115Z,96.4
2022-10-08T06:39:01.127Z,96.3
2022-10-08T06:40:01.109Z,96.2
2022-10-08T06:41:01.114Z,96.2
2022-10-08T06:42:01.122Z,96.1
2022-10-08T06:43:01.121Z,96
2022-10-08T06:44:01.280Z,96.2
2022-10-08T06:45:02.375Z,96.5
2022-10-08T06:46:02.443Z,96.4
2022-10-08T06:47:01.195Z,96.5
2022-10-08T06:48:01.868Z,96.6
2022-10-08T06:49:01.861Z,96.9
2022-10-08T06:50:01.102Z,97.3
2022-10-08T06:51:01.098Z,97.4
2022-10-08T06:52:01.093Z,97.3
2022-10-08T06:53:01.073Z,97.2
2022-10-08T06:54:07.486Z,97.3
2022-10-08T06:55:01.834Z,97.6
2022-10-08T06:56:01.141Z,97.4
2022-10-08T06:57:01.065Z,97.4
2022-10-08T06:58:01.157Z,97.6
2022-10-08T06:59:01.144Z,97.8
2022-10-08T07:00:00.809Z,97.9
2022-10-08T07:01:01.379Z,98.1
2022-10-08T07:02:01.669Z,98.1
2022-10-08T07:03:01.441Z,98.1
2022-10-08T07:04:01.462Z,98.4
2022-10-08T07:05:01.102Z,98.7
2022-10-08T07:06:01.071Z,98.5
2022-10-08T07:07:01.076Z,98.6
2022-10-08T07:08:01.314Z,98.6
2022-10-08T07:09:01.102Z,98.6
2022-10-08T07:10:01.782Z,99
2022-10-08T07:11:00.899Z,99.4
2022-10-08T07:12:00.582Z,99.5
2022-10-08T07:13:00.297Z,99.5
2022-10-08T07:13:59.990Z,99.4
2022-10-08T07:15:03.391Z,99.4
2022-10-08T07:16:01.206Z,99.2
2022-10-08T07:17:01.336Z,99.1
2022-10-08T07:18:01.159Z,99.3
2022-10-08T07:19:01.959Z,99.3
2022-10-08T07:20:06.250Z,99.1
2022-10-08T07:21:00.650Z,99.1
2022-10-08T07:22:01.506Z,99
2022-10-08T07:23:01.400Z,99.4
2022-10-08T07:24:02.428Z,99.4
2022-10-08T07:25:08.310Z,99.7
2022-10-08T07:26:01.140Z,99.7
2022-10-08T07:27:01.215Z,99.7
2022-10-08T07:28:01.399Z,99.7
2022-10-08T07:29:02.445Z,99.6
2022-10-08T07:30:11.980Z,99.3
2022-10-08T07:31:01.566Z,99.4
2022-10-08T07:32:01.543Z,99.3
2022-10-08T07:33:01.824Z,99.1
2022-10-08T07:34:01.060Z,99
2022-10-08T07:35:14.420Z,98.9
2022-10-08T07:36:01.054Z,98.8
2022-10-08T07:37:01.438Z,98.8
2022-10-08T07:38:01.190Z,98.8
2022-10-08T07:39:01.155Z,98.6
2022-10-08T07:40:01.240Z,98.3
2022-10-08T07:41:01.091Z,98.3
2022-10-08T07:42:01.093Z,98.3
2022-10-08T07:43:01.106Z,98.7
2022-10-08T07:44:01.124Z,99.1
2022-10-08T07:45:00.805Z,99.2
2022-10-08T07:46:01.517Z,99.2
2022-10-08T07:47:01.927Z,99.1
2022-10-08T07:48:01.587Z,98.9
2022-10-08T07:49:01.071Z,99.3
2022-10-08T07:50:01.063Z,99.6
2022-10-08T07:51:01.047Z,99.8
2022-10-08T07:52:01.057Z,99.8
2022-10-08T07:53:01.373Z,99.9
2022-10-08T07:54:02.959Z,99.9
2022-10-08T07:55:02.000Z,99.9
2022-10-08T07:56:02.198Z,99.9
2022-10-08T07:57:01.385Z,99.9
2022-10-08T07:58:02.732Z,99.9
2022-10-08T07:59:02.028Z,99.9
2022-10-08T08:00:01.459Z,99.9
2022-10-08T08:01:01.237Z,99.9
2022-10-08T08:02:01.245Z,99.9
2022-10-08T08:03:01.424Z,99.8
2022-10-08T08:04:01.434Z,99.8
2022-10-08T08:05:01.124Z,99.6
2022-10-08T08:06:01.150Z,99.3
2022-10-08T08:07:01.269Z,99.1
2022-10-08T08:08:01.292Z,99.1
2022-10-08T08:09:02.449Z,98.8
2022-10-08T08:10:01.898Z,98.5
2022-10-08T08:11:02.186Z,98.6
2022-10-08T08:12:01.496Z,98.4
2022-10-08T08:13:01.108Z,98.2
2022-10-08T08:14:01.108Z,98.1
2022-10-08T08:15:01.109Z,98
2022-10-08T08:16:01.178Z,97.7
2022-10-08T08:17:01.928Z,97.7
2022-10-08T08:18:01.123Z,97.3
2022-10-08T08:19:01.048Z,96.8
2022-10-08T08:20:01.142Z,96.7
2022-10-08T08:21:01.149Z,96.6
2022-10-08T08:22:01.547Z,96.4
2022-10-08T08:23:01.046Z,96.1
2022-10-08T08:24:01.073Z,95.9
2022-10-08T08:25:00.759Z,95.7
2022-10-08T08:26:00.312Z,95.9
2022-10-08T08:26:59.946Z,95.5
2022-10-08T08:27:59.921Z,95
2022-10-08T08:28:59.712Z,94.2
2022-10-08T08:30:01.818Z,93.2
2022-10-08T08:31:02.594Z,93.2
2022-10-08T08:32:02.128Z,92.7
2022-10-08T08:33:01.154Z,92.8
2022-10-08T08:34:01.145Z,91.9
2022-10-08T08:35:01.140Z,91.3
2022-10-08T08:36:01.885Z,91.5
2022-10-08T08:37:01.160Z,91.4
2022-10-08T08:38:01.154Z,91
2022-10-08T08:39:01.775Z,90.7
2022-10-08T08:40:01.395Z,90.6
2022-10-08T08:41:02.679Z,90.4
2022-10-08T08:42:01.080Z,86.5
2022-10-08T08:43:01.071Z,87.2
2022-10-08T08:44:01.047Z,87
2022-10-08T08:45:00.780Z,86.3
2022-10-08T08:46:00.559Z,87.9
2022-10-08T08:47:00.310Z,85.1
2022-10-08T08:48:00.479Z,82.6
2022-10-08T08:49:00.250Z,82.8
2022-10-08T08:50:00.268Z,80.3
2022-10-08T08:50:59.924Z,79.9
2022-10-08T08:51:59.565Z,78.6
2022-10-08T08:53:01.690Z,77.2
2022-10-08T08:54:01.738Z,75.5
2022-10-08T08:55:01.473Z,75
2022-10-08T08:56:01.098Z,74.2
2022-10-08T08:57:01.106Z,72.9
2022-10-08T08:58:01.077Z,73
2022-10-08T08:59:02.319Z,72.4
2022-10-08T09:00:01.117Z,70
2022-10-08T09:01:01.170Z,56.9
2022-10-08T09:02:01.155Z,55.6
2022-10-08T09:03:01.102Z,55.2
2022-10-08T09:04:02.513Z,55.4
2022-10-08T09:05:01.596Z,55.2
2022-10-08T09:06:04.164Z,55.1
2022-10-08T09:07:01.950Z,53.4
2022-10-08T09:08:01.215Z,52.8
2022-10-08T09:09:01.043Z,52.6
2022-10-08T09:10:01.162Z,52.4
2022-10-08T09:11:06.089Z,52.9
2022-10-08T09:12:01.751Z,53.4
2022-10-08T09:13:01.789Z,52.9
2022-10-08T09:14:01.036Z,52.7
2022-10-08T09:15:01.069Z,52.8
2022-10-08T09:16:09.449Z,52.7
2022-10-08T09:17:01.911Z,53.1
2022-10-08T09:18:01.930Z,53.9
2022-10-08T09:19:01.076Z,53.2
2022-10-08T09:20:01.117Z,53.5
2022-10-08T09:21:11.855Z,53.6
2022-10-08T09:22:01.144Z,53.2
2022-10-08T09:23:01.124Z,53.1
2022-10-08T09:24:01.172Z,52.8
2022-10-08T09:25:00.830Z,52.5
2022-10-08T09:26:13.574Z,52.8
2022-10-08T09:27:01.182Z,52.3
2022-10-08T09:28:01.221Z,52.3
2022-10-08T09:29:01.048Z,52
2022-10-08T09:30:00.657Z,51.7
2022-10-08T09:31:14.901Z,51.5
2022-10-08T09:32:01.297Z,51.6
2022-10-08T09:33:01.208Z,51.2
2022-10-08T09:34:01.260Z,50.7
2022-10-08T09:35:01.290Z,49.7
2022-10-08T09:36:16.843Z,50.3
2022-10-08T09:37:01.114Z,51.6
2022-10-08T09:38:05.661Z,50.6
2022-10-08T09:39:01.850Z,49.4
2022-10-08T09:40:01.142Z,45.9
2022-10-08T09:41:01.139Z,44.6
2022-10-08T09:42:01.188Z,44.2
2022-10-08T09:43:01.069Z,43.5
2022-10-08T09:44:01.981Z,41.1
2022-10-08T09:45:00.752Z,40.4
2022-10-08T09:46:00.593Z,38.5
2022-10-08T09:47:00.288Z,38.7
2022-10-08T09:47:59.859Z,38.4
2022-10-08T09:48:59.471Z,37.1
2022-10-08T09:50:01.402Z,35.2
2022-10-08T09:51:01.137Z,33.9
2022-10-08T09:52:01.245Z,34.4
2022-10-08T09:53:01.249Z,34.5
2022-10-08T09:54:01.436Z,33.7
2022-10-08T09:55:01.968Z,33.6
2022-10-08T09:56:02.135Z,30
2022-10-08T09:57:01.166Z,29.7
2022-10-08T09:58:01.142Z,29.8
2022-10-08T09:59:01.858Z,29.9
2022-10-08T10:00:01.163Z,28.7
2022-10-08T10:01:01.911Z,27.7
2022-10-08T10:02:01.777Z,27.1
2022-10-08T10:03:02.315Z,26.9
2022-10-08T10:04:01.947Z,26.2
2022-10-08T10:05:00.983Z,24.7
2022-10-08T10:06:01.098Z,23.6
2022-10-08T10:07:01.124Z,23.8
2022-10-08T10:08:01.065Z,23.5
2022-10-08T10:09:01.232Z,23.1
2022-10-08T10:10:01.509Z,20.9
2022-10-08T10:11:01.144Z,19.9
2022-10-08T10:12:01.193Z,18.3
2022-10-08T10:13:01.143Z,17.8
2022-10-08T10:14:01.060Z,17
2022-10-08T10:15:01.091Z,17.1
2022-10-08T10:16:01.441Z,16.6
2022-10-08T10:17:01.251Z,16.8
2022-10-08T10:18:02.507Z,16.1
2022-10-08T10:19:02.090Z,16.3
2022-10-08T10:20:01.094Z,16.9
2022-10-08T10:21:01.102Z,17.1
2022-10-08T10:22:01.493Z,16.3
2022-10-08T10:23:01.113Z,15.6
2022-10-08T10:24:01.886Z,15.4
2022-10-08T10:25:00.802Z,15.6
2022-10-08T10:26:05.522Z,15.5
2022-10-08T10:27:02.705Z,15.4
2022-10-08T10:28:01.201Z,15.3
2022-10-08T10:29:01.954Z,15.7
2022-10-08T10:30:01.058Z,15.8
2022-10-08T10:31:01.147Z,15.8
2022-10-08T10:32:01.445Z,15.5
2022-10-08T10:33:02.068Z,15.5
2022-10-08T10:34:01.072Z,15.3
2022-10-08T10:35:01.064Z,14.9
2022-10-08T10:36:01.099Z,14.4
2022-10-08T10:37:01.096Z,13.8
2022-10-08T10:38:01.089Z,13.8
2022-10-08T10:39:01.042Z,13.7
2022-10-08T10:40:01.139Z,13.5
2022-10-08T10:41:01.937Z,13
2022-10-08T10:42:01.634Z,12.9
2022-10-08T10:43:01.173Z,13.1
2022-10-08T10:44:01.961Z,13.2
2022-10-08T10:45:00.933Z,13.2
2022-10-08T10:46:01.079Z,13.1
2022-10-08T10:47:01.057Z,11.8
2022-10-08T10:48:01.464Z,11
2022-10-08T10:49:01.628Z,10.4
2022-10-08T10:50:01.290Z,10.3
2022-10-08T10:51:01.096Z,10
2022-10-08T10:52:04.154Z,10.2
2022-10-08T10:53:01.088Z,10.2
2022-10-08T10:54:01.313Z,10.4
2022-10-08T10:55:01.328Z,9.9
2022-10-08T10:56:01.489Z,9.8
2022-10-08T10:57:07.011Z,9.1
2022-10-08T10:58:00.927Z,9.2
2022-10-08T10:59:00.545Z,7.5
2022-10-08T11:00:00.233Z,7.1
2022-10-08T11:01:00.026Z,7
2022-10-08T11:02:09.905Z,6.6
2022-10-08T11:03:02.025Z,6.2
2022-10-08T11:04:01.237Z,5.2
2022-10-08T11:05:01.971Z,5.3
2022-10-08T11:06:01.978Z,5.9
2022-10-08T11:07:12.892Z,5.3
2022-10-08T11:08:01.043Z,5.3
2022-10-08T11:09:01.067Z,5.3
2022-10-08T11:10:01.133Z,3.3
2022-10-08T11:11:01.289Z,1
2022-10-08T11:12:16.611Z,1
2022-10-08T11:13:01.951Z,1
2022-10-08T11:14:01.293Z,1
2022-10-08T11:15:01.134Z,1
2022-10-08T11:16:01.270Z,1
2022-10-08T11:17:01.319Z,1
2022-10-08T11:18:01.158Z,1
2022-10-08T11:19:01.784Z,1
2022-10-08T11:20:01.183Z,1
2022-10-08T11:21:01.805Z,1
2022-10-08T11:22:01.571Z,1
2022-10-08T11:23:01.764Z,1
2022-10-08T11:24:01.699Z,1
2022-10-08T11:25:01.928Z,1
2022-10-08T11:27:01.108Z,1
2022-10-08T11:28:01.254Z,1
2022-10-08T11:29:01.281Z,1
2022-10-08T11:30:01.555Z,1
2022-10-08T11:31:02.390Z,1
2022-10-08T11:32:01.147Z,1
2022-10-08T11:33:01.350Z,1
2022-10-08T11:34:01.250Z,1
2022-10-08T11:35:01.051Z,1
2022-10-08T11:36:01.067Z,1
2022-10-08T11:37:01.069Z,1
2022-10-08T11:38:01.820Z,1
2022-10-08T11:39:01.926Z,1
2022-10-08T11:40:02.531Z,1
2022-10-08T11:41:01.222Z,1
2022-10-08T11:42:01.103Z,1
2022-10-08T11:43:01.100Z,1
2022-10-08T11:44:01.075Z,1
2022-10-08T11:45:00.801Z,1
2022-10-08T11:46:01.164Z,1
2022-10-08T11:47:01.245Z,1
2022-10-08T11:48:01.215Z,1
2022-10-08T11:49:08.043Z,1
2022-10-08T11:50:01.236Z,1
2022-10-08T11:51:01.069Z,1
2022-10-08T11:52:00.699Z,1
2022-10-08T11:53:00.478Z,1
2022-10-08T11:54:00.481Z,1
2022-10-08T11:55:00.170Z,1
2022-10-08T11:55:59.860Z,1
2022-10-08T11:57:01.910Z,1
2022-10-08T11:58:09.398Z,1
2022-10-08T11:59:01.180Z,1
2022-10-08T12:00:07.132Z,1
2022-10-08T12:01:02.441Z,1
2022-10-08T12:02:01.227Z,1
2022-10-08T12:03:01.488Z,1
2022-10-08T12:04:01.946Z,1
2022-10-08T12:05:01.362Z,1
2022-10-08T12:06:01.464Z,1
2022-10-08T12:07:01.206Z,1
2022-10-08T12:08:01.199Z,1
2022-10-08T12:09:01.872Z,1
2022-10-08T12:10:01.114Z,1
2022-10-08T12:11:01.898Z,1
2022-10-08T12:12:02.437Z,1
2022-10-08T12:13:01.121Z,1
2022-10-08T12:14:04.049Z,1
2022-10-08T12:15:02.432Z,1
2022-10-08T12:16:01.216Z,1
2022-10-08T12:17:01.127Z,1
2022-10-08T12:18:01.580Z,1
2022-10-08T12:19:02.239Z,1
2022-10-08T12:20:01.251Z,1
2022-10-08T12:21:02.789Z,1
2022-10-08T12:22:01.314Z,1
2022-10-08T12:23:01.347Z,1
2022-10-08T12:24:04.130Z,1
2022-10-08T12:25:02.088Z,1
2022-10-08T12:26:01.575Z,1
2022-10-08T12:27:01.114Z,1
2022-10-08T12:28:01.477Z,1
2022-10-08T12:29:01.900Z,1
2022-10-08T12:30:02.102Z,1
2022-10-08T12:31:01.253Z,1
2022-10-08T12:32:01.929Z,1
2022-10-08T12:33:01.063Z,1
2022-10-08T12:34:01.160Z,1
2022-10-08T12:35:01.222Z,1
2022-10-08T12:36:03.909Z,1
2022-10-08T12:37:01.960Z,1
2022-10-08T12:38:01.761Z,1
2022-10-08T12:39:01.429Z,1
2022-10-08T12:40:01.306Z,1
2022-10-08T12:41:02.985Z,1
2022-10-08T12:42:01.988Z,1
2022-10-08T12:43:04.298Z,1
2022-10-08T12:44:01.073Z,1
2022-10-08T12:45:01.130Z,1
2022-10-08T12:46:00.793Z,1
2022-10-08T12:47:00.423Z,1
2022-10-08T12:48:06.830Z,1
2022-10-08T12:49:01.044Z,1
2022-10-08T12:50:01.166Z,1
2022-10-08T12:51:01.171Z,1
2022-10-08T12:52:01.152Z,1
2022-10-08T12:53:10.139Z,1
2022-10-08T12:54:01.712Z,1
2022-10-08T12:55:01.441Z,1
2022-10-08T12:56:01.192Z,1
2022-10-08T12:57:01.074Z,1
2022-10-08T12:58:13.532Z,1
2022-10-08T12:59:01.097Z,1
2022-10-08T13:00:01.197Z,1
2022-10-08T13:01:01.419Z,1
2022-10-08T13:02:01.910Z,1
2022-10-08T13:03:16.193Z,1
2022-10-08T13:04:01.272Z,1
2022-10-08T13:05:03.940Z,1
2022-10-08T13:06:00.616Z,1
2022-10-08T13:07:00.198Z,1
2022-10-08T13:07:59.803Z,1
2022-10-08T13:09:02.470Z,1
2022-10-08T13:10:01.181Z,1
2022-10-08T13:11:01.978Z,1
2022-10-08T13:12:03.390Z,1
2022-10-08T13:13:00.654Z,1
2022-10-08T13:14:00.272Z,1
2022-10-08T13:14:59.968Z,1
2022-10-08T13:15:59.982Z,1
2022-10-08T13:16:59.655Z,1
2022-10-08T13:18:01.714Z,1
2022-10-08T13:19:02.356Z,1
2022-10-08T13:20:01.786Z,1
2022-10-08T13:21:01.312Z,1
2022-10-08T13:22:02.472Z,1
2022-10-08T13:23:01.235Z,1
2022-10-08T13:24:02.871Z,1
2022-10-08T13:25:01.875Z,1
2022-10-08T13:26:01.782Z,1
2022-10-08T13:27:02.361Z,1
2022-10-08T13:28:02.482Z,1
2022-10-08T13:29:05.212Z,1
2022-10-08T13:30:01.261Z,1
2022-10-08T13:31:01.272Z,1
2022-10-08T13:32:01.640Z,1
2022-10-08T13:33:01.128Z,1
2022-10-08T13:34:04.349Z,1
2022-10-08T13:35:01.345Z,1
2022-10-08T13:36:02.790Z,1
2022-10-08T13:37:03.706Z,1
2022-10-08T13:38:01.499Z,1
2022-10-08T13:39:01.731Z,1
2022-10-08T13:40:02.125Z,1